createdAt,value
2022-09-03T00:02:33.252Z,37.12
2022-09-03T00:05:10.924Z,37.22
2022-09-03T00:07:57.722Z,37.07
2022-09-03T00:10:32.980Z,37.38
2022-09-03T00:13:04.796Z,37.53
2022-09-03T00:15:34.479Z,37.85
2022-09-03T00:18:07.206Z,37.39
2022-09-03T00:20:42.498Z,37.10
2022-09-03T00:23:17.114Z,37.37
2022-09-03T00:25:50.671Z,37.50
2022-09-03T00:28:21.553Z,37.26
2022-09-03T00:30:57.099Z,37.28
2022-09-03T00:33:33.009Z,37.47
2022-09-03T00:36:02.361Z,37.94
2022-09-03T00:38:30.286Z,37.78
2022-09-03T00:41:07.919Z,37.82
2022-09-03T00:43:58.574Z,38.72
2022-09-03T00:46:41.913Z,38.13
2022-09-03T00:49:23.673Z,38.50
2022-09-03T00:52:06.987Z,39.15
2022-09-03T00:54:36.500Z,38.73
2022-09-03T00:57:18.167Z,38.47
2022-09-03T01:00:00.839Z,38.15
2022-09-03T01:02:57.816Z,38.97
2022-09-03T01:06:03.398Z,39.35
2022-09-03T01:08:52.343Z,40.06
2022-09-03T01:11:33.345Z,39.56
2022-09-03T01:14:06.409Z,39.71
2022-09-03T01:16:44.950Z,39.72
2022-09-03T01:19:39.875Z,39.42
2022-09-03T01:22:31.584Z,39.27
2022-09-03T01:25:04.740Z,38.87
2022-09-03T01:27:50.322Z,39.29
2022-09-03T01:30:24.195Z,38.54
2022-09-03T01:33:04.194Z,38.68
2022-09-03T01:35:47.659Z,38.85
2022-09-03T01:38:26.740Z,39.08
2022-09-03T01:41:49.242Z,38.30
2022-09-03T01:44:40.315Z,38.28
2022-09-03T01:47:21.909Z,38.82
2022-09-03T01:49:59.406Z,38.42
2022-09-03T01:52:52.272Z,39.02
2022-09-03T01:55:31.849Z,39.28
2022-09-03T01:58:11.865Z,38.62
2022-09-03T02:00:42.768Z,38.80
2022-09-03T02:03:12.223Z,38.01
2022-09-03T02:05:39.172Z,38.42
2022-09-03T02:08:08.861Z,39.07
2022-09-03T02:10:45.397Z,39.31
2022-09-03T02:13:23.001Z,38.76
2022-09-03T02:15:52.712Z,39.11
2022-09-03T02:18:26.873Z,39.24
2022-09-03T02:20:54.410Z,39.80
2022-09-03T02:23:27.818Z,39.74
2022-09-03T02:26:01.314Z,39.42
2022-09-03T02:28:32.501Z,40.16
2022-09-03T02:30:59.032Z,39.86
2022-09-03T02:33:26.221Z,39.94
2022-09-03T02:35:53.391Z,40.01
2022-09-03T02:38:26.112Z,40.02
2022-09-03T02:40:56.026Z,39.54
2022-09-03T02:43:30.942Z,39.82
2022-09-03T02:46:02.067Z,39.73
2022-09-03T02:48:28.554Z,38.54
2022-09-03T02:50:54.982Z,38.26
2022-09-03T02:53:21.620Z,39.79
2022-09-03T02:55:48.140Z,39.01
2022-09-03T02:58:14.586Z,39.07
2022-09-03T03:00:41.031Z,38.43
2022-09-03T03:03:07.540Z,38.60
2022-09-03T03:05:47.206Z,38.78
2022-09-03T03:08:15.351Z,39.06
2022-09-03T03:10:45.088Z,38.72
2022-09-03T03:13:12.563Z,38.73
2022-09-03T03:15:39.229Z,39.19
2022-09-03T03:18:07.475Z,39.41
2022-09-03T03:20:34.369Z,38.88
2022-09-03T03:23:05.523Z,39.04
2022-09-03T03:25:37.018Z,38.86
2022-09-03T03:28:05.069Z,38.78
2022-09-03T03:30:32.467Z,39.17
2022-09-03T03:32:58.999Z,38.81
2022-09-03T03:35:25.710Z,38.40
2022-09-03T03:37:52.370Z,38.06
2022-09-03T03:40:20.179Z,38.24
2022-09-03T03:42:46.736Z,37.95
2022-09-03T03:45:13.205Z,37.79
2022-09-03T03:47:39.731Z,37.97
2022-09-03T03:50:06.789Z,38.25
2022-09-03T03:52:33.238Z,38.10
2022-09-03T03:54:59.727Z,38.15
2022-09-03T03:57:29.486Z,39.02
2022-09-03T03:59:55.983Z,38.88
2022-09-03T04:02:22.466Z,38.17
2022-09-03T04:04:48.980Z,37.72
2022-09-03T04:07:15.384Z,37.86
2022-09-03T04:09:41.792Z,37.48
2022-09-03T04:12:08.736Z,38.01
2022-09-03T04:14:35.405Z,38.56
2022-09-03T04:17:03.122Z,38.16
2022-09-03T04:19:30.189Z,38.46
2022-09-03T04:21:56.829Z,38.53
2022-09-03T04:24:23.880Z,38.43
2022-09-03T04:26:50.500Z,38.32
2022-09-03T04:29:18.293Z,37.88
2022-09-03T04:32:05.934Z,38.08
2022-09-03T04:34:32.679Z,37.79
2022-09-03T04:36:59.196Z,38.45
2022-09-03T04:39:26.209Z,38.57
2022-09-03T04:41:52.920Z,38.69
2022-09-03T04:44:19.448Z,38.46
2022-09-03T04:46:47.789Z,38.98
2022-09-03T04:49:16.544Z,38.92
2022-09-03T04:51:43.904Z,39.37
2022-09-03T04:54:11.123Z,39.96
2022-09-03T04:56:39.520Z,40.32
2022-09-03T04:59:08.838Z,39.69
2022-09-03T05:01:37.559Z,39.40
2022-09-03T05:04:05.102Z,40.03
2022-09-03T05:06:33.711Z,39.74
2022-09-03T05:09:00.961Z,39.22
2022-09-03T05:11:29.127Z,39.14
2022-09-03T05:13:58.604Z,39.25
2022-09-03T05:16:28.164Z,39.71
2022-09-03T05:18:56.655Z,41.18
2022-09-03T05:21:24.459Z,39.21
2022-09-03T05:23:51.953Z,39.01
2022-09-03T05:26:26.668Z,39.82
2022-09-03T05:28:57.505Z,39.11
2022-09-03T05:31:26.668Z,39.14
2022-09-03T05:33:58.328Z,38.35
2022-09-03T05:36:26.642Z,39.67
2022-09-03T05:38:56.467Z,39.65
2022-09-03T05:41:26.571Z,39.89
2022-09-03T05:43:59.028Z,38.53
2022-09-03T05:46:31.472Z,37.73
2022-09-03T05:49:02.367Z,39.00
2022-09-03T05:51:30.211Z,38.74
2022-09-03T05:53:58.031Z,37.91
2022-09-03T05:56:27.061Z,38.47
2022-09-03T05:58:56.390Z,38.24
2022-09-03T06:01:25.170Z,38.64
2022-09-03T06:04:01.037Z,37.79
2022-09-03T06:06:29.025Z,38.69
2022-09-03T06:08:59.559Z,37.41
2022-09-03T06:11:31.489Z,37.86
2022-09-03T06:14:02.686Z,37.53
2022-09-03T06:16:32.150Z,37.83
2022-09-03T06:19:02.485Z,37.64
2022-09-03T06:21:29.597Z,37.09
2022-09-03T06:23:59.533Z,37.17
2022-09-03T06:26:28.536Z,36.95
2022-09-03T06:28:56.196Z,36.82
2022-09-03T06:31:23.608Z,37.34
2022-09-03T06:33:50.129Z,37.74
2022-09-03T06:36:18.934Z,37.44
2022-09-03T06:38:46.480Z,37.41
2022-09-03T06:41:21.390Z,36.60
2022-09-03T06:43:49.128Z,37.27
2022-09-03T06:46:18.036Z,37.11
2022-09-03T06:48:45.624Z,36.99
2022-09-03T06:51:33.181Z,36.87
2022-09-03T06:54:08.247Z,36.75
2022-09-03T06:56:39.822Z,36.81
2022-09-03T06:59:12.325Z,36.42
2022-09-03T07:01:41.044Z,36.78
2022-09-03T07:04:12.757Z,36.67
2022-09-03T07:06:41.985Z,36.65
2022-09-03T07:09:10.119Z,36.98
2022-09-03T07:11:37.451Z,37.18
2022-09-03T07:14:04.954Z,36.81
2022-09-03T07:16:35.727Z,36.82
2022-09-03T07:19:03.606Z,36.71
2022-09-03T07:21:33.940Z,36.41
2022-09-03T07:24:00.848Z,36.67
2022-09-03T07:26:32.309Z,36.53
2022-09-03T07:29:00.737Z,37.12
2022-09-03T07:31:31.161Z,37.08
2022-09-03T07:33:59.571Z,36.76
2022-09-03T07:36:28.732Z,36.62
2022-09-03T07:38:59.610Z,36.50
2022-09-03T07:41:28.916Z,36.22
2022-09-03T07:43:57.013Z,36.28
2022-09-03T07:46:25.687Z,36.14
2022-09-03T07:49:04.450Z,36.69
2022-09-03T07:51:33.408Z,36.21
2022-09-03T07:54:02.641Z,36.44
2022-09-03T07:56:32.434Z,36.38
2022-09-03T07:58:59.334Z,36.69
2022-09-03T08:01:28.668Z,36.61
2022-09-03T08:03:55.779Z,36.35
2022-09-03T08:06:24.462Z,36.67
2022-09-03T08:09:04.593Z,36.64
2022-09-03T08:11:33.405Z,36.11
2022-09-03T08:14:03.163Z,35.65
2022-09-03T08:16:31.878Z,36.35
2022-09-03T08:18:59.348Z,36.38
2022-09-03T08:21:27.130Z,36.19
2022-09-03T08:24:02.764Z,36.80
2022-09-03T08:26:32.095Z,35.99
2022-09-03T08:28:59.039Z,36.01
2022-09-03T08:31:26.534Z,36.05
2022-09-03T08:33:54.981Z,36.53
2022-09-03T08:36:25.291Z,36.14
2022-09-03T08:38:55.149Z,36.30
2022-09-03T08:42:08.296Z,36.12
2022-09-03T08:44:46.883Z,36.12
2022-09-03T08:47:28.442Z,35.88
2022-09-03T08:50:00.821Z,35.84
2022-09-03T08:52:49.017Z,35.31
2022-09-03T08:55:36.187Z,35.69
2022-09-03T08:58:06.788Z,34.96
2022-09-03T09:00:49.656Z,35.02
2022-09-03T09:03:42.358Z,35.25
2022-09-03T09:06:21.288Z,34.71
2022-09-03T09:09:10.883Z,34.02
2022-09-03T09:12:11.166Z,34.52
2022-09-03T09:14:49.742Z,34.37
2022-09-03T09:17:53.430Z,34.78
2022-09-03T09:20:41.695Z,34.46
2022-09-03T09:23:15.973Z,34.47
2022-09-03T09:25:48.854Z,34.74
2022-09-03T09:28:20.158Z,34.62
2022-09-03T13:14:12.463Z,30.84
2022-09-03T13:16:44.855Z,30.76
2022-09-03T13:19:26.249Z,31.27
2022-09-03T13:22:03.897Z,30.68
2022-09-03T13:24:59.213Z,30.38
2022-09-03T13:27:33.388Z,30.15
2022-09-03T13:30:03.753Z,30.68
2022-09-03T13:32:44.319Z,30.20
2022-09-03T13:35:27.482Z,30.29
2022-09-03T13:38:24.072Z,30.24
2022-09-03T13:41:19.584Z,30.21
2022-09-03T13:44:12.885Z,29.79
2022-09-03T13:46:56.166Z,29.43
2022-09-03T13:49:53.621Z,29.92
2022-09-03T13:52:31.542Z,29.41
2022-09-03T13:55:18.992Z,29.47
2022-09-03T13:58:24.871Z,28.90
2022-09-03T14:01:03.305Z,29.38
2022-09-03T14:03:48.581Z,29.25
2022-09-03T14:06:42.038Z,29.32
2022-09-03T14:09:23.844Z,29.08
2022-09-03T14:12:19.577Z,28.57
2022-09-03T14:15:00.886Z,28.84
2022-09-03T14:17:36.858Z,28.38
2022-09-03T14:20:31.282Z,28.82
2022-09-03T14:23:28.705Z,28.80
2022-09-03T14:26:03.789Z,29.13
2022-09-03T14:28:49.535Z,28.90
2022-09-03T14:31:43.926Z,29.95
2022-09-03T14:34:32.333Z,30.58
2022-09-03T14:37:23.894Z,30.21
2022-09-03T14:40:05.010Z,30.54
2022-09-03T14:42:47.713Z,30.21
2022-09-03T14:45:27.320Z,29.74
2022-09-03T14:48:12.992Z,29.59
2022-09-03T14:50:58.721Z,28.73
2022-09-03T14:53:50.469Z,28.87
2022-09-03T14:56:58.993Z,28.42
2022-09-03T14:59:56.340Z,28.65
2022-09-03T15:02:54.143Z,28.19
2022-09-03T15:05:48.561Z,28.83
2022-09-03T15:08:50.096Z,29.46
2022-09-03T15:11:27.658Z,30.88
2022-09-03T15:14:09.418Z,30.66
2022-09-03T15:16:53.903Z,30.18
2022-09-03T15:19:26.193Z,30.24
2022-09-03T15:22:09.632Z,30.37
2022-09-03T15:24:41.765Z,30.07
2022-09-03T15:27:40.381Z,30.28
2022-09-03T15:30:10.850Z,29.47
2022-09-03T15:32:57.782Z,29.74
2022-09-03T15:35:34.586Z,29.73
2022-09-03T15:38:10.876Z,29.78
2022-09-03T15:40:50.395Z,30.55
2022-09-03T15:43:22.698Z,29.76
2022-09-03T15:45:49.232Z,30.01
2022-09-03T15:48:39.160Z,30.76
2022-09-03T15:51:16.845Z,30.35
2022-09-03T15:53:55.097Z,29.56
2022-09-03T15:56:36.911Z,29.00
2022-09-03T15:59:19.774Z,28.89
2022-09-03T16:01:54.461Z,29.28
2022-09-03T16:04:59.827Z,29.38
2022-09-03T16:07:39.665Z,29.69
2022-09-03T16:10:30.492Z,29.31
2022-09-03T16:13:07.811Z,29.40
2022-09-03T16:15:41.584Z,28.91
2022-09-03T16:18:21.443Z,29.01
2022-09-03T16:21:05.265Z,29.25
2022-09-03T16:23:36.101Z,28.94
2022-09-03T16:26:13.426Z,29.58
2022-09-03T16:28:59.844Z,30.01
2022-09-03T16:31:51.063Z,30.25
2022-09-03T16:34:54.076Z,31.19
2022-09-03T16:37:40.149Z,31.23
2022-09-03T16:40:33.427Z,31.07
2022-09-03T16:43:44.654Z,31.62
2022-09-03T16:46:25.895Z,31.68
2022-09-03T16:49:38.329Z,32.10
2022-09-03T16:52:15.846Z,31.76
2022-09-03T16:55:21.992Z,32.34
2022-09-03T16:58:10.246Z,31.80
2022-09-03T17:01:10.864Z,31.90
2022-09-03T17:03:49.695Z,32.50
2022-09-03T17:06:55.077Z,32.42
2022-09-03T17:09:59.277Z,32.55
2022-09-03T17:12:48.775Z,33.29
2022-09-03T17:15:51.854Z,33.17
2022-09-03T17:18:55.465Z,33.20
2022-09-03T17:21:46.612Z,33.39
2022-09-03T17:25:29.237Z,33.48
2022-09-03T17:29:19.471Z,33.98
2022-09-03T17:31:55.088Z,33.90
2022-09-03T17:34:49.460Z,34.00
2022-09-03T17:41:24.156Z,34.68
2022-09-03T17:56:28.778Z,36.30
2022-09-03T18:02:40.457Z,36.67
2022-09-03T18:08:25.167Z,37.34
2022-09-03T18:11:02.244Z,37.53
2022-09-03T18:13:54.733Z,37.71
2022-09-03T18:16:28.115Z,37.96
2022-09-03T18:19:29.232Z,39.15
2022-09-03T18:22:17.906Z,38.59
2022-09-03T18:25:14.391Z,39.13
2022-09-03T18:28:06.637Z,39.39
2022-09-03T18:30:52.803Z,39.71
2022-09-03T18:33:43.549Z,39.77
2022-09-03T18:36:29.978Z,40.13
2022-09-03T18:39:33.394Z,39.72
2022-09-03T18:42:32.607Z,39.96
2022-09-03T18:45:56.371Z,39.75
2022-09-03T18:48:45.092Z,40.38
2022-09-03T18:51:45.439Z,40.82
2022-09-03T18:55:06.768Z,41.59
2022-09-03T18:58:26.843Z,42.22
2022-09-03T19:01:32.996Z,42.24
2022-09-03T19:04:55.138Z,42.25
2022-09-03T19:08:03.807Z,42.01
2022-09-03T19:11:13.490Z,42.25
2022-09-03T19:13:59.933Z,40.92
2022-09-03T19:16:48.138Z,41.02
2022-09-03T19:19:52.543Z,40.87
2022-09-03T19:22:56.717Z,41.38
2022-09-03T19:25:43.076Z,41.90
2022-09-03T19:29:03.836Z,41.37
2022-09-03T19:32:04.210Z,41.79
2022-09-03T19:34:55.138Z,40.96
2022-09-03T19:37:53.547Z,41.43
2022-09-03T19:40:59.808Z,42.07
2022-09-03T19:44:00.153Z,42.28
2022-09-03T19:46:51.058Z,42.58
2022-09-03T19:49:56.438Z,42.71
2022-09-03T19:53:07.687Z,42.78
2022-09-03T19:55:57.605Z,42.17
2022-09-03T19:58:46.577Z,42.73
2022-09-03T20:01:32.223Z,42.09
2022-09-03T20:04:22.392Z,43.01
2022-09-03T20:07:08.278Z,42.12
2022-09-03T20:10:00.516Z,43.16
2022-09-03T20:12:34.129Z,43.55
2022-09-03T20:15:04.432Z,42.97
2022-09-03T20:18:20.843Z,43.90
2022-09-03T20:20:47.175Z,44.38
2022-09-03T20:23:21.557Z,44.22
2022-09-03T20:26:12.389Z,44.54
2022-09-03T20:28:53.603Z,44.34
2022-09-03T20:31:27.223Z,44.49
2022-09-03T20:34:14.556Z,44.80
2022-09-03T20:36:54.376Z,45.55
2022-09-03T20:39:55.222Z,45.92
2022-09-03T20:42:44.455Z,46.08
2022-09-03T20:45:24.478Z,46.09
2022-09-03T20:48:03.531Z,46.18
2022-09-03T20:50:45.195Z,45.17
2022-09-03T20:53:43.432Z,46.48
2022-09-03T20:56:31.890Z,46.72
2022-09-03T20:59:09.210Z,46.33
2022-09-03T21:01:55.766Z,46.87
2022-09-03T21:04:51.478Z,47.84
2022-09-03T21:07:37.430Z,48.25
2022-09-03T21:10:34.009Z,48.10
2022-09-03T21:13:13.239Z,48.25
2022-09-03T21:15:57.915Z,48.65
2022-09-03T21:18:29.815Z,48.72
2022-09-03T21:21:26.265Z,48.76
2022-09-03T21:24:04.980Z,49.71
2022-09-03T21:26:39.897Z,49.69
2022-09-03T21:29:21.537Z,49.90
2022-09-03T21:31:53.750Z,50.36
2022-09-03T21:35:13.405Z,50.44
2022-09-03T21:37:44.920Z,50.57
2022-09-03T21:40:13.302Z,51.09
2022-09-03T21:43:10.805Z,50.71
2022-09-03T21:45:40.817Z,51.52
2022-09-03T21:48:21.187Z,51.68
2022-09-03T21:51:31.248Z,51.43
2022-09-03T21:54:04.862Z,51.61
2022-09-03T21:57:03.168Z,51.47
2022-09-03T21:59:52.899Z,51.22
2022-09-03T22:02:24.497Z,51.49
2022-09-03T22:04:52.370Z,51.92
2022-09-03T22:07:46.693Z,51.86
2022-09-03T22:10:46.994Z,52.06
2022-09-03T22:13:17.117Z,52.17
2022-09-03T22:15:51.255Z,51.95
2022-09-03T22:18:23.817Z,52.47
2022-09-03T22:21:36.853Z,52.60
2022-09-03T22:24:14.604Z,52.75
2022-09-03T22:27:36.292Z,53.03
2022-09-03T22:30:13.173Z,53.71
2022-09-03T22:32:48.311Z,52.78
2022-09-03T22:35:14.592Z,52.48
2022-09-03T22:38:02.787Z,53.62
2022-09-03T22:40:37.505Z,54.04
2022-09-03T22:43:39.473Z,54.53
2022-09-03T22:46:11.190Z,54.76
2022-09-03T22:48:43.389Z,55.27
2022-09-03T22:51:09.808Z,54.91
2022-09-03T22:53:45.410Z,55.06
2022-09-03T22:56:22.284Z,54.60
2022-09-03T22:58:56.974Z,54.30
2022-09-03T23:01:34.523Z,54.86
2022-09-03T23:04:16.335Z,55.56
2022-09-03T23:06:57.398Z,55.61
2022-09-03T23:09:30.164Z,55.77
2022-09-03T23:12:10.926Z,56.14
2022-09-03T23:14:48.604Z,55.44
2022-09-03T23:17:25.107Z,56.28
2022-09-03T23:22:37.190Z,57.06
2022-09-03T23:25:10.572Z,56.32
2022-09-03T23:28:10.935Z,55.55
2022-09-03T23:30:37.352Z,55.31
2022-09-03T23:33:04.131Z,55.96
2022-09-03T23:35:38.264Z,56.00
2022-09-03T23:38:27.014Z,55.94
2022-09-03T23:40:57.782Z,56.24
2022-09-03T23:44:01.513Z,57.18
2022-09-03T23:46:34.482Z,57.22
2022-09-03T23:49:09.619Z,57.49
2022-09-03T23:51:53.502Z,57.06
2022-09-03T23:54:35.582Z,57.54
2022-09-03T23:57:14.431Z,58.31
